Time;durP1;ratioP1;P1;durP2;ratioP2;P2;SDS_P1;SDS_P2;PMS_P1;PMS_P2;Temp;Humidity;BMP_temperature;BMP_pressure;BME280_temperature;BME280_humidity;BME280_pressure;Samples;Min_cycle;Max_cycle;Signal;HPM_P1;HPM_P2
2023/01/22 00:01:11;;;;;;;;;;;16.70;48.90;;;;;;10248029;28;1961;-75
2023/01/22 00:06:06;;;;;;;;;;;16.80;48.80;;;;;;10247831;28;858;-75
2023/01/22 00:11:02;;;;;;;;;;;16.70;48.80;;;;;;10247654;28;873;-75
2023/01/22 00:15:57;;;;;;;;;;;16.70;48.80;;;;;;10248193;28;902;-75
2023/01/22 00:20:53;;;;;;;;;;;16.70;48.90;;;;;;10247108;28;1955;-75
2023/01/22 00:25:48;;;;;;;;;;;16.70;48.80;;;;;;10247062;28;760;-75
2023/01/22 00:30:44;;;;;;;;;;;16.70;48.80;;;;;;10247562;28;806;-75
2023/01/22 00:35:39;;;;;;;;;;;16.70;49.00;;;;;;10246779;28;1216;-75
2023/01/22 00:40:34;;;;;;;;;;;16.70;48.90;;;;;;10246437;28;1973;-75
2023/01/22 00:45:30;;;;;;;;;;;16.60;48.90;;;;;;10246938;28;806;-75
2023/01/22 00:50:25;;;;;;;;;;;16.70;48.80;;;;;;10246360;28;800;-75
2023/01/22 00:55:20;;;;;;;;;;;16.70;48.80;;;;;;10244896;28;946;-75
2023/01/22 01:00:16;;;;;;;;;;;16.70;48.90;;;;;;10245705;28;1963;-75
2023/01/22 01:05:12;;;;;;;;;;;16.70;48.80;;;;;;10245542;28;941;-75
2023/01/22 01:10:08;;;;;;;;;;;16.70;48.80;;;;;;10245382;28;797;-75
2023/01/22 01:15:03;;;;;;;;;;;16.70;48.90;;;;;;10245414;28;822;-75
2023/01/22 01:19:58;;;;;;;;;;;16.70;48.80;;;;;;10245008;28;1898;-75
2023/01/22 01:24:54;;;;;;;;;;;16.70;48.80;;;;;;10244338;28;806;-75
2023/01/22 01:29:49;;;;;;;;;;;16.70;48.80;;;;;;10260682;28;810;-75
2023/01/22 01:34:46;;;;;;;;;;;16.70;48.70;;;;;;10244476;28;1149;-75
2023/01/22 01:39:42;;;;;;;;;;;16.70;48.80;;;;;;10244426;28;1919;-75
2023/01/22 01:44:37;;;;;;;;;;;16.70;48.80;;;;;;10244981;28;769;-75
2023/01/22 01:49:32;;;;;;;;;;;16.70;48.80;;;;;;10244956;28;866;-75
2023/01/22 01:54:28;;;;;;;;;;;16.70;48.80;;;;;;10244164;28;826;-75
2023/01/22 01:59:23;;;;;;;;;;;16.70;49.40;;;;;;10243995;28;1902;-75
2023/01/22 02:04:18;;;;;;;;;;;16.70;48.80;;;;;;10243925;28;874;-75
2023/01/22 02:09:14;;;;;;;;;;;16.70;48.90;;;;;;10251820;28;1010;-75
2023/01/22 02:14:09;;;;;;;;;;;16.60;48.80;;;;;;10252109;28;880;-75
2023/01/22 02:19:05;;;;;;;;;;;16.60;48.80;;;;;;10251841;28;1906;-75
2023/01/22 02:24:00;;;;;;;;;;;16.60;48.80;;;;;;10252344;28;806;-75
2023/01/22 02:28:55;;;;;;;;;;;16.70;48.80;;;;;;10251568;28;866;-75
2023/01/22 02:33:51;;;;;;;;;;;16.60;48.80;;;;;;10251389;28;755;-75
2023/01/22 02:38:46;;;;;;;;;;;16.70;48.70;;;;;;10251595;28;1902;-75
2023/01/22 02:43:41;;;;;;;;;;;16.70;48.70;;;;;;10251626;28;863;-75
2023/01/22 02:48:37;;;;;;;;;;;16.70;48.70;;;;;;10251385;28;833;-75
2023/01/22 02:53:32;;;;;;;;;;;16.70;48.60;;;;;;10250632;28;931;-75
2023/01/22 02:58:28;;;;;;;;;;;16.60;48.60;;;;;;10250362;28;1894;-75
2023/01/22 03:03:23;;;;;;;;;;;16.70;48.70;;;;;;10250854;28;863;-75
2023/01/22 03:08:18;;;;;;;;;;;16.70;48.70;;;;;;10250112;28;1059;-75
2023/01/22 03:23:42;;;;;;;;;;;16.60;48.70;;;;;;10249648;28;608;-75
2023/01/22 03:28:37;;;;;;;;;;;16.50;48.70;;;;;;10249361;28;994;-75
2023/01/22 03:33:32;;;;;;;;;;;16.50;48.70;;;;;;10249177;28;872;-75
2023/01/22 03:38:28;;;;;;;;;;;16.50;48.80;;;;;;10248996;28;1902;-75
2023/01/22 03:43:23;;;;;;;;;;;16.50;48.80;;;;;;10249423;28;865;-75
2023/01/22 03:48:18;;;;;;;;;;;16.50;48.70;;;;;;10248606;28;924;-75
2023/01/22 03:53:14;;;;;;;;;;;16.50;48.60;;;;;;10249632;28;770;-75
2023/01/22 03:58:09;;;;;;;;;;;16.60;48.50;;;;;;10248160;28;1965;-75
2023/01/22 04:03:04;;;;;;;;;;;16.70;48.50;;;;;;10248758;28;869;-75
2023/01/22 04:08:00;;;;;;;;;;;16.60;48.40;;;;;;10247880;28;862;-75
2023/01/22 04:12:55;;;;;;;;;;;16.60;48.30;;;;;;10247692;28;744;-75
2023/01/22 04:17:51;;;;;;;;;;;16.50;48.50;;;;;;10247380;28;1957;-75
2023/01/22 04:22:46;;;;;;;;;;;16.60;48.60;;;;;;10247296;28;789;-75
2023/01/22 04:27:41;;;;;;;;;;;16.50;48.60;;;;;;10246844;28;1045;-75
2023/01/22 04:32:37;;;;;;;;;;;16.50;48.60;;;;;;10246921;28;769;-75
2023/01/22 04:37:32;;;;;;;;;;;16.50;48.60;;;;;;10246896;28;1918;-75
2023/01/22 04:42:28;;;;;;;;;;;16.50;48.70;;;;;;10246537;28;890;-75
2023/01/22 04:47:23;;;;;;;;;;;16.50;48.70;;;;;;10246382;28;815;-75
2023/01/22 04:52:19;;;;;;;;;;;16.50;48.60;;;;;;10246125;28;819;-75
2023/01/22 04:57:14;;;;;;;;;;;16.60;48.50;;;;;;10245861;28;1910;-75
2023/01/22 05:02:09;;;;;;;;;;;16.60;48.50;;;;;;10245391;28;884;-75
2023/01/22 05:07:05;;;;;;;;;;;16.60;48.50;;;;;;10245825;28;1272;-75
2023/01/22 05:12:00;;;;;;;;;;;16.60;48.50;;;;;;10246202;28;819;-75
2023/01/22 05:16:56;;;;;;;;;;;16.70;48.40;;;;;;10245476;28;1901;-75
2023/01/22 05:21:51;;;;;;;;;;;16.60;48.40;;;;;;10245709;28;861;-75
2023/01/22 05:26:47;;;;;;;;;;;16.70;48.40;;;;;;10244489;28;956;-75
2023/01/22 05:31:42;;;;;;;;;;;16.70;48.40;;;;;;10244869;28;817;-75
2023/01/22 05:36:37;;;;;;;;;;;16.70;48.40;;;;;;10244290;28;1204;-75
2023/01/22 05:41:33;;;;;;;;;;;16.70;48.30;;;;;;10244017;28;1977;-75
2023/01/22 05:46:28;;;;;;;;;;;16.70;48.30;;;;;;10244991;28;919;-75
2023/01/22 05:51:23;;;;;;;;;;;16.70;48.40;;;;;;10244286;28;756;-75
2023/01/22 05:56:19;;;;;;;;;;;16.70;48.30;;;;;;10245319;28;887;-75
2023/01/22 06:01:14;;;;;;;;;;;16.80;48.30;;;;;;10244565;28;1902;-75
2023/01/22 06:06:10;;;;;;;;;;;16.70;48.40;;;;;;10244545;28;1440;-73
2023/01/22 06:11:05;;;;;;;;;;;16.80;48.30;;;;;;10243755;28;863;-72
2023/01/22 06:16:00;;;;;;;;;;;16.80;48.30;;;;;;10243749;28;839;-70
2023/01/22 06:20:56;;;;;;;;;;;16.80;48.30;;;;;;10243623;28;1969;-70
2023/01/22 06:25:51;;;;;;;;;;;16.80;48.40;;;;;;10244011;28;896;-72
2023/01/22 06:30:47;;;;;;;;;;;16.80;48.30;;;;;;10243958;28;766;-71
2023/01/22 06:35:42;;;;;;;;;;;16.70;48.30;;;;;;10243524;28;1086;-70
2023/01/22 06:40:37;;;;;;;;;;;16.80;48.40;;;;;;10243494;28;1918;-71
2023/01/22 06:45:33;;;;;;;;;;;16.80;48.30;;;;;;10242879;28;759;-71
2023/01/22 06:50:28;;;;;;;;;;;17.00;48.20;;;;;;10243418;28;801;-71
2023/01/22 06:55:24;;;;;;;;;;;17.10;48.20;;;;;;10250998;28;818;-71
2023/01/22 07:00:19;;;;;;;;;;;17.10;48.30;;;;;;10250397;28;1902;-71
2023/01/22 07:05:14;;;;;;;;;;;17.10;48.20;;;;;;10250264;28;863;-71
2023/01/22 07:10:10;;;;;;;;;;;17.10;48.40;;;;;;10250056;28;879;-71
2023/01/22 07:15:08;;;;;;;;;;;17.20;48.30;;;;;;10250546;28;841;-71
2023/01/22 07:20:04;;;;;;;;;;;17.20;48.20;;;;;;10250237;28;1960;-71
2023/01/22 07:24:59;;;;;;;;;;;17.20;48.20;;;;;;10250132;28;833;-70
2023/01/22 07:29:54;;;;;;;;;;;17.20;48.20;;;;;;10249326;28;860;-71
2023/01/22 07:34:50;;;;;;;;;;;17.10;48.30;;;;;;10248922;28;1062;-71
2023/01/22 07:39:45;;;;;;;;;;;17.10;47.90;;;;;;10248679;28;1978;-70
2023/01/22 07:44:41;;;;;;;;;;;17.20;47.80;;;;;;10248423;28;966;-70
2023/01/22 07:49:36;;;;;;;;;;;17.20;47.60;;;;;;10248259;28;952;-71
2023/01/22 07:54:35;;;;;;;;;;;17.30;47.60;;;;;;10248172;28;896;-70
2023/01/22 07:59:30;;;;;;;;;;;17.30;47.60;;;;;;10248451;28;1910;-77
2023/01/22 08:04:25;;;;;;;;;;;17.30;47.60;;;;;;10247191;28;776;-72
2023/01/22 08:09:24;;;;;;;;;;;17.30;47.70;;;;;;10247492;28;939;-75
2023/01/22 08:14:19;;;;;;;;;;;17.30;47.70;;;;;;10247967;28;841;-77
2023/01/22 08:19:17;;;;;;;;;;;17.30;47.60;;;;;;10247269;28;1903;-76
2023/01/22 08:24:13;;;;;;;;;;;17.30;47.60;;;;;;10247177;28;834;-75
2023/01/22 08:29:08;;;;;;;;;;;17.40;47.60;;;;;;10246755;28;826;-76
2023/01/22 08:34:03;;;;;;;;;;;17.30;47.60;;;;;;10247192;28;866;-75
2023/01/22 08:38:59;;;;;;;;;;;17.30;47.80;;;;;;10245901;28;1918;-76
2023/01/22 08:43:54;;;;;;;;;;;17.40;47.90;;;;;;10247627;28;877;-76
2023/01/22 08:48:49;;;;;;;;;;;17.40;47.80;;;;;;10246695;28;932;-75
2023/01/22 08:53:45;;;;;;;;;;;17.30;47.90;;;;;;10246473;28;917;-75
2023/01/22 08:58:40;;;;;;;;;;;17.20;47.80;;;;;;10246431;28;1961;-75
2023/01/22 09:03:35;;;;;;;;;;;17.10;48.70;;;;;;10245503;28;869;-75
2023/01/22 09:08:31;;;;;;;;;;;17.10;48.20;;;;;;10245846;28;802;-74
2023/01/22 09:13:26;;;;;;;;;;;17.00;48.20;;;;;;10245629;28;868;-75
2023/01/22 09:18:22;;;;;;;;;;;17.00;48.20;;;;;;10243474;28;1961;-75
2023/01/22 09:23:17;;;;;;;;;;;17.00;48.20;;;;;;10244196;28;834;-75
2023/01/22 09:28:13;;;;;;;;;;;16.90;48.30;;;;;;10244550;28;854;-74
2023/01/22 09:33:09;;;;;;;;;;;16.90;48.30;;;;;;10245591;28;842;-74
2023/01/22 09:38:04;;;;;;;;;;;16.90;48.40;;;;;;10243916;28;1906;-75
2023/01/22 09:42:59;;;;;;;;;;;16.90;48.50;;;;;;10243551;28;897;-80
2023/01/22 09:47:57;;;;;;;;;;;16.90;48.40;;;;;;10244030;28;817;-73
2023/01/22 09:52:52;;;;;;;;;;;17.00;48.30;;;;;;10243928;28;886;-72
2023/01/22 09:57:47;;;;;;;;;;;17.20;48.20;;;;;;10243729;28;1898;-72
2023/01/22 10:02:43;;;;;;;;;;;17.20;48.00;;;;;;10243654;28;914;-72
2023/01/22 10:07:38;;;;;;;;;;;17.30;47.90;;;;;;10244291;28;791;-72
2023/01/22 10:12:33;;;;;;;;;;;17.30;47.80;;;;;;10243526;28;895;-72
2023/01/22 10:17:29;;;;;;;;;;;17.30;47.80;;;;;;10244063;28;1955;-72
2023/01/22 10:22:25;;;;;;;;;;;17.40;47.80;;;;;;10243847;28;882;-77
2023/01/22 10:27:20;;;;;;;;;;;17.40;47.80;;;;;;10246356;28;865;-72
2023/01/22 10:32:16;;;;;;;;;;;17.40;47.80;;;;;;10252016;28;913;-72
2023/01/22 10:37:11;;;;;;;;;;;17.40;47.80;;;;;;10251102;28;1968;-74
2023/01/22 10:42:07;;;;;;;;;;;17.40;47.90;;;;;;10250283;28;788;-73
2023/01/22 10:47:02;;;;;;;;;;;17.40;47.80;;;;;;10250624;28;927;-73
2023/01/22 10:51:57;;;;;;;;;;;17.40;47.70;;;;;;10250528;28;1026;-73
2023/01/22 10:56:53;;;;;;;;;;;17.50;47.70;;;;;;10250381;28;1955;-73
2023/01/22 11:01:48;;;;;;;;;;;17.40;47.80;;;;;;10250156;28;854;-72
2023/01/22 11:06:43;;;;;;;;;;;17.40;47.80;;;;;;10249405;28;898;-73
2023/01/22 11:11:39;;;;;;;;;;;17.40;47.80;;;;;;10250304;28;864;-72
2023/01/22 11:16:35;;;;;;;;;;;17.50;47.80;;;;;;10250487;28;868;-73
2023/01/22 11:21:31;;;;;;;;;;;17.40;47.80;;;;;;10249305;28;1973;-73
2023/01/22 11:26:27;;;;;;;;;;;17.40;47.70;;;;;;10249708;28;782;-73
2023/01/22 11:31:22;;;;;;;;;;;17.40;47.80;;;;;;10248937;28;959;-74
2023/01/22 11:36:18;;;;;;;;;;;17.40;47.90;;;;;;10248778;28;1523;-73
2023/01/22 11:41:13;;;;;;;;;;;17.40;48.00;;;;;;10247661;28;1983;-74
2023/01/22 11:46:08;;;;;;;;;;;17.40;48.00;;;;;;10248475;28;889;-72
2023/01/22 11:51:04;;;;;;;;;;;17.30;48.00;;;;;;10248232;28;867;-73
2023/01/22 11:55:59;;;;;;;;;;;17.30;48.00;;;;;;10247507;28;790;-74
2023/01/22 12:00:55;;;;;;;;;;;17.40;48.00;;;;;;10247818;28;1914;-72
2023/01/22 12:05:50;;;;;;;;;;;17.40;47.90;;;;;;10248258;28;858;-73
2023/01/22 12:10:45;;;;;;;;;;;17.40;47.80;;;;;;10248065;28;814;-72
2023/01/22 12:15:41;;;;;;;;;;;17.40;47.80;;;;;;10247311;28;1151;-72
2023/01/22 12:20:36;;;;;;;;;;;17.40;47.80;;;;;;10246585;28;1915;-72
2023/01/22 12:25:31;;;;;;;;;;;17.50;47.40;;;;;;10246921;28;938;-69
2023/01/22 12:30:27;;;;;;;;;;;17.40;46.80;;;;;;10246283;28;858;-70
2023/01/22 12:35:24;;;;;;;;;;;17.40;46.90;;;;;;10246239;28;1224;-70
2023/01/22 12:40:20;;;;;;;;;;;17.40;47.20;;;;;;10246342;28;1918;-70
2023/01/22 12:45:15;;;;;;;;;;;17.50;47.20;;;;;;10246752;28;945;-70
2023/01/22 12:50:11;;;;;;;;;;;17.50;47.40;;;;;;10246509;28;873;-70
2023/01/22 12:55:06;;;;;;;;;;;17.50;47.40;;;;;;10246721;28;881;-69
2023/01/22 13:00:01;;;;;;;;;;;17.50;47.40;;;;;;10244946;28;1964;-69
2023/01/22 13:04:57;;;;;;;;;;;17.50;47.40;;;;;;10244866;28;881;-70
2023/01/22 13:09:52;;;;;;;;;;;17.50;47.50;;;;;;10245832;28;857;-70
2023/01/22 13:14:47;;;;;;;;;;;17.60;47.60;;;;;;10245089;28;972;-70
2023/01/22 13:19:46;;;;;;;;;;;17.60;47.60;;;;;;10244230;28;1914;-70
2023/01/22 13:24:42;;;;;;;;;;;17.60;47.60;;;;;;10244730;28;942;-73
2023/01/22 13:29:38;;;;;;;;;;;17.50;48.20;;;;;;10245521;28;900;-73
2023/01/22 13:34:33;;;;;;;;;;;17.60;47.70;;;;;;10244411;28;862;-73
2023/01/22 13:39:29;;;;;;;;;;;17.50;47.60;;;;;;10244805;28;1995;-73
2023/01/22 13:44:24;;;;;;;;;;;17.60;47.70;;;;;;10260085;28;897;-73
2023/01/22 13:49:19;;;;;;;;;;;17.50;47.70;;;;;;10243992;28;874;-73
2023/01/22 13:54:15;;;;;;;;;;;17.50;47.60;;;;;;10243944;28;794;-73
2023/01/22 13:59:10;;;;;;;;;;;17.50;47.70;;;;;;10243742;28;1898;-73
2023/01/22 14:04:06;;;;;;;;;;;17.50;47.60;;;;;;10244401;28;838;-73
2023/01/22 14:09:01;;;;;;;;;;;17.60;47.70;;;;;;10244694;28;954;-73
2023/01/22 14:13:56;;;;;;;;;;;17.50;47.60;;;;;;10243828;28;817;-71
2023/01/22 14:18:52;;;;;;;;;;;17.60;47.70;;;;;;10279388;28;1959;-73
2023/01/22 14:23:47;;;;;;;;;;;17.60;47.80;;;;;;10324392;28;886;-73
2023/01/22 14:28:43;;;;;;;;;;;17.70;47.80;;;;;;10324775;28;766;-73
2023/01/22 14:33:38;;;;;;;;;;;17.70;47.80;;;;;;10324773;28;806;-72
2023/01/22 14:38:34;;;;;;;;;;;17.70;47.70;;;;;;10325150;28;1984;-71
2023/01/22 14:43:29;;;;;;;;;;;17.70;47.80;;;;;;10324487;28;1133;-71
2023/01/22 14:48:24;;;;;;;;;;;17.60;47.90;;;;;;10324500;28;936;-71
2023/01/22 14:53:20;;;;;;;;;;;17.70;48.20;;;;;;10324311;28;966;-71
2023/01/22 14:58:15;;;;;;;;;;;17.60;47.90;;;;;;10324460;28;1906;-71
2023/01/22 15:03:10;;;;;;;;;;;17.70;48.00;;;;;;10323641;28;1030;-71
2023/01/22 15:08:06;;;;;;;;;;;17.70;48.00;;;;;;10324041;28;879;-70
2023/01/22 15:13:01;;;;;;;;;;;17.70;48.00;;;;;;10324366;28;949;-71
2023/01/22 15:17:57;;;;;;;;;;;17.60;48.00;;;;;;10331778;28;1963;-71
2023/01/22 15:22:52;;;;;;;;;;;17.60;48.00;;;;;;10330993;28;969;-71
2023/01/22 15:27:47;;;;;;;;;;;17.60;47.90;;;;;;10330784;28;829;-71
2023/01/22 15:32:43;;;;;;;;;;;17.60;47.90;;;;;;10331372;28;873;-71
2023/01/22 15:37:38;;;;;;;;;;;17.60;47.90;;;;;;10329558;28;1910;-66
2023/01/22 15:42:34;;;;;;;;;;;17.60;47.90;;;;;;10330313;28;774;-78
2023/01/22 15:47:29;;;;;;;;;;;17.40;48.00;;;;;;10330094;28;875;-78
2023/01/22 15:52:25;;;;;;;;;;;17.30;48.30;;;;;;10330538;28;794;-78
2023/01/22 15:57:20;;;;;;;;;;;17.30;48.40;;;;;;10330220;28;1905;-78
2023/01/22 16:02:17;;;;;;;;;;;17.20;48.40;;;;;;10329596;28;774;-78
2023/01/22 16:07:12;;;;;;;;;;;17.20;48.40;;;;;;10329663;28;837;-78
2023/01/22 16:12:07;;;;;;;;;;;17.20;48.30;;;;;;10329141;28;850;-78
2023/01/22 16:17:03;;;;;;;;;;;17.20;48.40;;;;;;10328962;28;1914;-79
2023/01/22 16:21:58;;;;;;;;;;;17.20;48.40;;;;;;10328129;28;935;-79
2023/01/22 16:26:54;;;;;;;;;;;17.20;48.40;;;;;;10329379;28;888;-79
2023/01/22 16:31:49;;;;;;;;;;;17.20;48.40;;;;;;10328388;28;861;-79
2023/01/22 16:36:44;;;;;;;;;;;17.20;48.50;;;;;;10328181;28;1141;-79
2023/01/22 16:41:40;;;;;;;;;;;17.20;48.50;;;;;;10328011;28;1973;-79
2023/01/22 16:46:35;;;;;;;;;;;17.10;48.40;;;;;;10328976;28;782;-79
2023/01/22 16:51:31;;;;;;;;;;;17.10;48.40;;;;;;10327520;28;818;-79
2023/01/22 16:56:26;;;;;;;;;;;17.10;48.40;;;;;;10327363;28;883;-78
2023/01/22 17:01:21;;;;;;;;;;;17.10;48.40;;;;;;10327146;28;1897;-79
2023/01/22 17:06:17;;;;;;;;;;;17.20;48.40;;;;;;10326854;28;1000;-79
2023/01/22 17:11:12;;;;;;;;;;;17.10;48.40;;;;;;10326196;28;892;-72
2023/01/22 17:16:07;;;;;;;;;;;17.10;48.40;;;;;;10308109;28;932;-73
2023/01/22 17:21:03;;;;;;;;;;;17.20;48.30;;;;;;10326391;28;1957;-69
2023/01/22 17:25:58;;;;;;;;;;;17.20;48.40;;;;;;10326311;28;883;-71
2023/01/22 17:30:54;;;;;;;;;;;17.50;48.20;;;;;;10326158;28;790;-79
2023/01/22 17:35:49;;;;;;;;;;;17.50;48.20;;;;;;10325430;28;1544;-79
2023/01/22 17:40:44;;;;;;;;;;;17.30;48.40;;;;;;10325832;28;1898;-79
2023/01/22 17:45:40;;;;;;;;;;;17.20;48.50;;;;;;10325778;28;794;-78
2023/01/22 17:50:35;;;;;;;;;;;17.20;48.50;;;;;;10325091;28;956;-79
2023/01/22 17:55:30;;;;;;;;;;;17.20;48.50;;;;;;10325541;28;874;-79
2023/01/22 18:00:26;;;;;;;;;;;17.20;48.40;;;;;;10325392;28;2221;-79
2023/01/22 18:05:24;;;;;;;;;;;17.10;48.50;;;;;;10325953;28;872;-79
2023/01/22 18:10:20;;;;;;;;;;;17.10;48.40;;;;;;10325160;28;910;-79
2023/01/22 18:15:15;;;;;;;;;;;17.10;48.40;;;;;;10325121;28;888;-79
2023/01/22 18:20:10;;;;;;;;;;;17.20;48.40;;;;;;10325095;28;1894;-79
2023/01/22 18:25:06;;;;;;;;;;;17.20;48.40;;;;;;10325609;28;910;-79
2023/01/22 18:30:01;;;;;;;;;;;17.10;48.30;;;;;;10324927;28;747;-79
2023/01/22 18:34:57;;;;;;;;;;;17.10;48.30;;;;;;10325220;28;1275;-79
2023/01/22 18:39:52;;;;;;;;;;;17.20;48.40;;;;;;10324702;28;2056;-79
2023/01/22 18:44:47;;;;;;;;;;;17.10;48.30;;;;;;10324606;28;760;-78
2023/01/22 18:49:43;;;;;;;;;;;17.10;48.30;;;;;;10330221;28;817;-79
2023/01/22 18:54:38;;;;;;;;;;;17.10;48.30;;;;;;10332089;28;952;-71
2023/01/22 18:59:33;;;;;;;;;;;17.10;48.30;;;;;;10331899;28;1906;-71
2023/01/22 19:04:29;;;;;;;;;;;17.10;48.20;;;;;;10331704;28;1031;-70
2023/01/22 19:09:25;;;;;;;;;;;17.10;48.20;;;;;;10332289;28;759;-64
2023/01/22 19:14:21;;;;;;;;;;;17.10;48.20;;;;;;10331970;28;943;-69
2023/01/22 19:19:16;;;;;;;;;;;17.20;48.00;;;;;;10331145;28;1959;-68
2023/01/22 19:24:13;;;;;;;;;;;17.10;48.20;;;;;;10331727;28;902;-68
2023/01/22 19:29:08;;;;;;;;;;;17.10;48.20;;;;;;10330862;28;845;-68
2023/01/22 19:34:04;;;;;;;;;;;17.10;48.20;;;;;;10330686;28;868;-69
2023/01/22 19:38:59;;;;;;;;;;;17.10;48.20;;;;;;10330217;28;1913;-69
2023/01/22 19:43:55;;;;;;;;;;;17.10;48.20;;;;;;10329634;28;1660;-69
2023/01/22 19:48:50;;;;;;;;;;;17.10;48.10;;;;;;10330142;28;775;-69
2023/01/22 19:53:47;;;;;;;;;;;17.20;48.20;;;;;;10330558;28;857;-68
2023/01/22 19:58:42;;;;;;;;;;;17.10;48.20;;;;;;10328846;28;1963;-68
2023/01/22 20:03:38;;;;;;;;;;;17.20;48.10;;;;;;10330242;28;908;-68
2023/01/22 20:08:37;;;;;;;;;;;17.10;48.10;;;;;;10329834;28;935;-68
2023/01/22 20:13:33;;;;;;;;;;;17.20;48.20;;;;;;10329158;28;957;-68
2023/01/22 20:18:29;;;;;;;;;;;17.20;48.20;;;;;;10329883;28;1910;-68
2023/01/22 20:23:24;;;;;;;;;;;17.20;48.10;;;;;;10328753;28;898;-68
2023/01/22 20:28:20;;;;;;;;;;;17.20;48.00;;;;;;10328595;28;773;-68
2023/01/22 20:33:15;;;;;;;;;;;17.20;48.20;;;;;;10329021;28;867;-68
2023/01/22 20:38:10;;;;;;;;;;;17.20;48.20;;;;;;10329104;28;1973;-68
2023/01/22 20:43:06;;;;;;;;;;;17.10;48.20;;;;;;10328558;28;852;-68
2023/01/22 20:48:01;;;;;;;;;;;17.10;48.30;;;;;;10328511;28;884;-68
2023/01/22 20:52:56;;;;;;;;;;;17.10;48.30;;;;;;10328136;28;934;-68
2023/01/22 20:57:52;;;;;;;;;;;17.10;48.30;;;;;;10326698;28;1910;-68
2023/01/22 21:02:47;;;;;;;;;;;17.00;48.30;;;;;;10327750;28;833;-69
2023/01/22 21:07:43;;;;;;;;;;;17.10;48.30;;;;;;10326373;28;856;-69
2023/01/22 21:12:38;;;;;;;;;;;17.10;48.30;;;;;;10326113;28;897;-69
2023/01/22 21:17:33;;;;;;;;;;;17.10;48.30;;;;;;10326561;28;1914;-69
2023/01/22 21:22:29;;;;;;;;;;;17.00;48.30;;;;;;10326410;28;891;-69
2023/01/22 21:27:24;;;;;;;;;;;17.00;48.30;;;;;;10326225;28;878;-69
2023/01/22 21:32:20;;;;;;;;;;;17.00;48.30;;;;;;10326160;28;782;-69
2023/01/22 21:37:15;;;;;;;;;;;17.10;48.30;;;;;;10325188;28;1906;-69
2023/01/22 21:47:24;;;;;;;;;;;17.00;48.30;;;;;;10325664;28;608;-69
2023/01/22 21:52:21;;;;;;;;;;;17.00;48.30;;;;;;10325692;28;1061;-69
2023/01/22 21:57:16;;;;;;;;;;;17.00;48.30;;;;;;10325469;28;1914;-69
2023/01/22 22:02:11;;;;;;;;;;;17.00;48.30;;;;;;10326100;28;814;-69
2023/01/22 22:07:07;;;;;;;;;;;17.00;48.30;;;;;;10325672;28;880;-69
2023/01/22 22:12:02;;;;;;;;;;;17.00;48.90;;;;;;10324721;28;964;-69
2023/01/22 22:16:58;;;;;;;;;;;17.00;48.40;;;;;;10325812;28;817;-69
2023/01/22 22:21:53;;;;;;;;;;;17.00;48.30;;;;;;10326300;28;1894;-69
2023/01/22 22:26:48;;;;;;;;;;;17.00;48.30;;;;;;10333341;28;966;-69
2023/01/22 22:31:44;;;;;;;;;;;17.00;48.40;;;;;;10333883;28;758;-69
2023/01/22 22:41:53;;;;;;;;;;;17.00;48.40;;;;;;10159505;28;1875;-71
2023/01/22 22:46:49;;;;;;;;;;;16.90;48.30;;;;;;10159057;28;865;-71
2023/01/22 22:51:44;;;;;;;;;;;16.90;48.40;;;;;;10139061;28;926;-71
2023/01/22 22:56:39;;;;;;;;;;;16.90;48.40;;;;;;10131726;28;866;-71
2023/01/22 23:01:36;;;;;;;;;;;17.00;48.40;;;;;;10131512;28;1968;-71
2023/01/22 23:06:32;;;;;;;;;;;16.90;48.40;;;;;;10130938;28;777;-71
2023/01/22 23:11:27;;;;;;;;;;;16.90;48.40;;;;;;10131217;28;976;-71
2023/01/22 23:16:22;;;;;;;;;;;17.00;49.00;;;;;;10130813;28;845;-71
2023/01/22 23:21:18;;;;;;;;;;;16.90;48.40;;;;;;10130267;28;1952;-71
2023/01/22 23:26:13;;;;;;;;;;;17.00;48.40;;;;;;10130283;28;874;-71
2023/01/22 23:31:09;;;;;;;;;;;17.00;48.30;;;;;;10130788;28;860;-71
2023/01/22 23:36:05;;;;;;;;;;;16.90;48.30;;;;;;10128557;28;970;-71
2023/01/22 23:41:00;;;;;;;;;;;17.00;48.30;;;;;;10130086;28;1890;-71
2023/01/22 23:45:55;;;;;;;;;;;17.00;48.30;;;;;;10130026;28;794;-71
2023/01/22 23:50:52;;;;;;;;;;;16.90;48.40;;;;;;10129211;28;803;-71
2023/01/22 23:55:48;;;;;;;;;;;16.90;48.40;;;;;;10129012;28;924;-71
